createdAt,value
2018-05-06T00:01:25.590Z,9.27
2018-05-06T00:02:52.932Z,9.26
2018-05-06T00:04:20.165Z,9.24
2018-05-06T00:05:47.547Z,9.23
2018-05-06T00:07:15.910Z,9.24
2018-05-06T00:08:42.267Z,9.25
2018-05-06T00:10:09.505Z,9.29
2018-05-06T00:11:36.849Z,9.32
2018-05-06T00:13:05.181Z,9.36
2018-05-06T00:14:32.662Z,9.37
2018-05-06T00:15:59.846Z,9.38
2018-05-06T00:17:27.159Z,9.37
2018-05-06T00:18:53.528Z,9.33
2018-05-06T00:20:21.680Z,9.30
2018-05-06T00:21:47.930Z,9.28
2018-05-06T00:23:16.043Z,9.27
2018-05-06T00:24:43.488Z,9.26
2018-05-06T00:26:09.651Z,9.23
2018-05-06T00:27:36.948Z,9.21
2018-05-06T00:29:04.316Z,9.20
2018-05-06T00:30:31.621Z,9.16
2018-05-06T00:31:59.049Z,9.11
2018-05-06T00:33:26.446Z,9.08
2018-05-06T00:34:53.567Z,9.06
2018-05-06T00:36:20.792Z,9.05
2018-05-06T00:37:49.156Z,9.04
2018-05-06T00:39:15.333Z,9.04
2018-05-06T00:40:42.623Z,9.05
2018-05-06T00:42:10.949Z,9.05
2018-05-06T00:43:38.269Z,9.08
2018-05-06T00:45:04.677Z,9.11
2018-05-06T00:46:33.060Z,9.14
2018-05-06T00:48:00.259Z,9.13
2018-05-06T00:49:27.527Z,9.11
2018-05-06T00:50:53.846Z,9.10
2018-05-06T00:52:21.140Z,9.08
2018-05-06T00:53:49.490Z,9.06
2018-05-06T00:55:15.685Z,9.05
2018-05-06T00:56:43.964Z,9.03
2018-05-06T00:58:11.397Z,9.02
2018-05-06T00:59:38.808Z,9.01
2018-05-06T01:01:05.997Z,8.98
2018-05-06T01:02:32.287Z,8.94
2018-05-06T01:04:00.549Z,8.87
2018-05-06T01:05:27.863Z,8.80
2018-05-06T01:06:55.030Z,8.70
2018-05-06T01:08:22.222Z,8.62
2018-05-06T01:09:48.508Z,8.58
2018-05-06T01:11:16.809Z,8.52
2018-05-06T01:12:42.953Z,8.48
2018-05-06T01:14:10.207Z,8.48
2018-05-06T01:15:38.404Z,8.51
2018-05-06T01:17:04.699Z,8.56
2018-05-06T01:18:33.001Z,8.59
2018-05-06T01:20:00.251Z,8.62
2018-05-06T01:21:26.579Z,8.62
2018-05-06T01:22:54.866Z,8.59
2018-05-06T01:24:22.082Z,8.53
2018-05-06T01:25:48.291Z,8.49
2018-05-06T01:27:16.719Z,8.45
2018-05-06T01:28:42.928Z,8.39
2018-05-06T01:30:10.243Z,8.39
2018-05-06T01:31:38.246Z,8.36
2018-05-06T01:33:05.669Z,8.35
2018-05-06T01:34:32.831Z,8.29
2018-05-06T01:35:59.148Z,8.26
2018-05-06T01:37:26.417Z,8.24
2018-05-06T01:38:53.756Z,8.23
2018-05-06T01:40:22.044Z,8.24
2018-05-06T01:41:48.416Z,8.27
2018-05-06T01:43:15.746Z,8.30
2018-05-06T01:44:43.127Z,8.36
2018-05-06T01:46:10.352Z,8.42
2018-05-06T01:47:37.674Z,8.47
2018-05-06T01:49:04.985Z,8.51
2018-05-06T01:50:32.303Z,8.56
2018-05-06T01:51:59.601Z,8.60
2018-05-06T01:53:26.887Z,8.62
2018-05-06T01:54:54.096Z,8.58
2018-05-06T01:56:21.499Z,8.52
2018-05-06T01:57:48.713Z,8.47
2018-05-06T01:59:17.126Z,8.44
2018-05-06T02:00:43.433Z,8.43
2018-05-06T02:02:10.607Z,8.42
2018-05-06T02:03:37.818Z,8.44
2018-05-06T02:05:05.084Z,8.43
2018-05-06T02:06:33.249Z,8.43
2018-05-06T02:08:00.656Z,8.41
2018-05-06T02:09:27.996Z,8.39
2018-05-06T02:10:54.000Z,8.40
2018-05-06T02:12:21.109Z,8.40
2018-05-06T02:13:48.445Z,8.35
2018-05-06T02:15:15.768Z,8.28
2018-05-06T02:16:43.156Z,8.22
2018-05-06T02:18:11.443Z,8.16
2018-05-06T02:19:37.795Z,8.11
2018-05-06T02:21:05.104Z,8.11
2018-05-06T02:22:33.526Z,8.15
2018-05-06T02:24:00.864Z,8.20
2018-05-06T02:25:26.915Z,8.18
2018-05-06T02:26:54.259Z,8.17
2018-05-06T02:28:22.617Z,8.12
2018-05-06T02:29:50.102Z,8.11
2018-05-06T02:31:17.336Z,8.15
2018-05-06T02:32:43.598Z,8.18
2018-05-06T02:34:10.980Z,8.22
2018-05-06T02:35:39.179Z,8.24
2018-05-06T02:37:05.488Z,8.25
2018-05-06T02:38:32.879Z,8.28
2018-05-06T02:40:00.314Z,8.30
2018-05-06T02:41:28.578Z,8.32
2018-05-06T02:42:55.921Z,8.34
2018-05-06T02:44:22.088Z,8.35
2018-05-06T02:45:49.223Z,8.36
2018-05-06T02:47:16.453Z,8.31
2018-05-06T02:48:44.765Z,8.29
2018-05-06T02:50:11.211Z,8.29
2018-05-06T02:51:38.508Z,8.31
2018-05-06T02:53:05.716Z,8.32
2018-05-06T02:54:34.117Z,8.34
2018-05-06T02:56:01.430Z,8.33
2018-05-06T02:57:28.748Z,8.34
2018-05-06T02:58:55.935Z,8.34
2018-05-06T03:00:22.368Z,8.37
2018-05-06T03:01:50.498Z,8.38
2018-05-06T03:03:16.856Z,8.40
2018-05-06T03:04:44.115Z,8.42
2018-05-06T03:06:12.445Z,8.44
2018-05-06T03:07:39.700Z,8.45
2018-05-06T03:09:05.989Z,8.43
2018-05-06T03:10:33.396Z,8.41
2018-05-06T03:12:00.530Z,8.38
2018-05-06T03:13:27.808Z,8.34
2018-05-06T03:14:56.216Z,8.30
2018-05-06T03:16:22.354Z,8.24
2018-05-06T03:17:50.249Z,8.18
2018-05-06T03:19:16.542Z,8.14
2018-05-06T03:20:43.872Z,8.10
2018-05-06T03:22:11.185Z,7.98
2018-05-06T03:23:38.472Z,7.85
2018-05-06T03:25:06.773Z,7.78
2018-05-06T03:26:34.168Z,7.73
2018-05-06T03:28:00.470Z,7.71
2018-05-06T03:29:27.784Z,7.73
2018-05-06T03:30:55.103Z,7.79
2018-05-06T03:32:22.368Z,7.85
2018-05-06T03:33:49.307Z,7.90
2018-05-06T03:35:16.724Z,7.93
2018-05-06T03:36:44.844Z,7.95
2018-05-06T03:38:11.049Z,7.97
2018-05-06T03:39:39.465Z,8.00
2018-05-06T03:41:06.847Z,8.02
2018-05-06T03:42:33.162Z,8.01
2018-05-06T03:44:00.448Z,7.94
2018-05-06T03:45:27.729Z,7.89
2018-05-06T03:46:55.078Z,7.78
2018-05-06T03:48:22.321Z,7.65
2018-05-06T03:49:50.433Z,7.59
2018-05-06T03:51:16.822Z,7.54
2018-05-06T03:52:45.172Z,7.51
2018-05-06T03:54:12.325Z,7.48
2018-05-06T03:55:38.581Z,7.48
2018-05-06T03:57:06.706Z,7.50
2018-05-06T03:58:33.072Z,7.52
2018-05-06T04:00:00.301Z,7.52
2018-05-06T04:01:28.406Z,7.50
2018-05-06T04:04:21.550Z,7.44
2018-05-06T04:05:50.050Z,7.41
2018-05-06T04:07:16.360Z,7.37
2018-05-06T04:08:44.494Z,7.36
2018-05-06T04:10:11.971Z,7.36
2018-05-06T04:11:39.138Z,7.39
2018-05-06T04:13:05.448Z,7.40
2018-05-06T04:14:33.637Z,7.42
2018-05-06T04:16:00.774Z,7.47
2018-05-06T04:17:27.936Z,7.49
2018-05-06T04:18:55.011Z,7.54
2018-05-06T04:20:21.973Z,7.61
2018-05-06T04:21:48.343Z,7.67
2018-05-06T04:23:15.624Z,7.75
2018-05-06T04:24:43.073Z,7.80
2018-05-06T04:26:11.541Z,7.82
2018-05-06T04:27:38.847Z,7.85
2018-05-06T04:29:05.232Z,7.88
2018-05-06T04:30:33.461Z,7.92
2018-05-06T04:31:59.598Z,7.94
2018-05-06T04:33:26.828Z,7.98
2018-05-06T04:34:54.064Z,8.03
2018-05-06T04:36:22.293Z,8.08
2018-05-06T04:37:48.591Z,8.12
2018-05-06T04:39:16.852Z,8.15
2018-05-06T04:40:44.106Z,8.20
2018-05-06T04:42:11.281Z,8.24
2018-05-06T04:43:37.680Z,8.26
2018-05-06T04:45:04.965Z,8.30
2018-05-06T04:46:33.126Z,8.33
2018-05-06T04:48:00.443Z,8.37
2018-05-06T04:49:26.712Z,8.38
2018-05-06T04:50:55.018Z,8.38
2018-05-06T04:52:22.288Z,8.39
2018-05-06T04:53:49.626Z,8.40
2018-05-06T04:55:15.941Z,8.42
2018-05-06T04:56:43.204Z,8.46
2018-05-06T04:58:11.463Z,8.50
2018-05-06T04:59:37.869Z,8.55
2018-05-06T05:01:05.948Z,8.58
2018-05-06T05:02:32.374Z,8.62
2018-05-06T05:03:59.631Z,8.68
2018-05-06T05:05:26.708Z,8.73
2018-05-06T05:06:54.998Z,8.79
2018-05-06T05:08:21.377Z,8.86
2018-05-06T05:09:49.641Z,8.93
2018-05-06T05:11:16.019Z,9.00
2018-05-06T05:12:44.343Z,9.07
2018-05-06T05:14:10.619Z,9.13
2018-05-06T05:15:38.910Z,9.20
2018-05-06T05:17:06.267Z,9.26
2018-05-06T05:18:33.488Z,9.33
2018-05-06T05:20:00.696Z,9.40
2018-05-06T05:21:27.957Z,9.47
2018-05-06T05:22:55.310Z,9.53
2018-05-06T05:24:21.633Z,9.60
2018-05-06T05:25:49.573Z,9.67
2018-05-06T05:27:16.959Z,9.73
2018-05-06T05:28:43.405Z,9.81
2018-05-06T05:30:10.573Z,9.89
2018-05-06T05:31:38.027Z,9.98
2018-05-06T05:33:05.347Z,10.08
2018-05-06T05:34:32.741Z,10.18
2018-05-06T05:36:00.107Z,10.29
2018-05-06T05:37:27.312Z,10.44
2018-05-06T05:38:55.583Z,10.64
2018-05-06T05:40:21.863Z,10.84
2018-05-06T05:41:49.200Z,11.03
2018-05-06T05:43:17.417Z,11.24
2018-05-06T05:44:43.699Z,11.47
2018-05-06T05:46:11.211Z,11.69
2018-05-06T05:47:38.443Z,11.93
2018-05-06T05:49:05.647Z,12.14
2018-05-06T05:50:33.957Z,12.35
2018-05-06T05:52:01.240Z,12.55
2018-05-06T05:53:28.577Z,12.75
2018-05-06T05:54:54.699Z,12.90
2018-05-06T05:56:22.117Z,13.05
2018-05-06T05:57:49.697Z,13.11
2018-05-06T05:59:16.981Z,13.18
2018-05-06T06:00:44.484Z,13.26
2018-05-06T06:02:13.095Z,13.33
2018-05-06T06:03:39.199Z,13.44
2018-05-06T06:05:06.761Z,13.56
2018-05-06T06:06:34.092Z,13.67
2018-05-06T06:08:02.491Z,13.77
2018-05-06T06:09:28.784Z,13.91
2018-05-06T06:10:56.102Z,13.98
2018-05-06T06:12:24.664Z,14.03
2018-05-06T06:13:50.827Z,14.05
2018-05-06T06:15:18.279Z,14.08
2018-05-06T06:16:45.643Z,14.14
2018-05-06T06:18:12.796Z,14.16
2018-05-06T06:19:40.432Z,14.24
2018-05-06T06:21:08.867Z,14.31
2018-05-06T06:22:34.847Z,14.40
2018-05-06T06:24:03.229Z,14.56
2018-05-06T06:25:29.661Z,14.68
2018-05-06T06:26:56.929Z,14.76
2018-05-06T06:28:24.253Z,14.79
2018-05-06T06:29:51.521Z,14.94
2018-05-06T06:31:20.132Z,15.01
2018-05-06T06:32:46.458Z,15.09
2018-05-06T06:34:14.057Z,15.18
2018-05-06T06:35:42.355Z,15.26
2018-05-06T06:37:08.944Z,15.32
2018-05-06T06:38:37.140Z,15.38
2018-05-06T06:40:04.577Z,15.40
2018-05-06T06:41:30.866Z,15.49
2018-05-06T06:42:59.364Z,15.56
2018-05-06T06:44:25.573Z,15.53
2018-05-06T06:45:54.155Z,15.59
2018-05-06T06:47:20.385Z,15.64
2018-05-06T06:48:48.853Z,15.72
2018-05-06T06:50:15.213Z,15.76
2018-05-06T06:51:42.359Z,15.82
2018-05-06T06:53:10.957Z,15.94
2018-05-06T06:54:38.365Z,16.10
2018-05-06T06:56:05.658Z,16.20
2018-05-06T06:57:32.065Z,16.24
2018-05-06T06:58:59.571Z,16.24
2018-05-06T07:00:27.048Z,16.29
2018-05-06T07:01:54.398Z,16.29
2018-05-06T07:03:21.627Z,16.26
2018-05-06T07:04:49.259Z,16.26
2018-05-06T07:06:16.616Z,16.27
2018-05-06T07:07:43.789Z,16.25
2018-05-06T07:09:11.203Z,16.31
2018-05-06T07:10:38.662Z,16.38
2018-05-06T07:12:07.156Z,16.46
2018-05-06T07:13:33.029Z,16.48
2018-05-06T07:15:00.471Z,16.56
2018-05-06T07:16:27.811Z,16.63
2018-05-06T07:17:56.337Z,16.70
2018-05-06T07:19:23.876Z,16.69
2018-05-06T07:20:49.837Z,16.77
2018-05-06T07:22:17.385Z,16.82
2018-05-06T07:23:44.857Z,16.80
2018-05-06T07:25:13.131Z,16.80
2018-05-06T07:26:39.645Z,16.85
2018-05-06T07:28:07.098Z,16.88
2018-05-06T07:29:35.467Z,16.91
2018-05-06T07:31:02.510Z,16.88
2018-05-06T07:32:30.067Z,16.92
2018-05-06T07:33:56.385Z,16.93
2018-05-06T07:35:24.566Z,16.97
2018-05-06T07:36:50.898Z,17.03
2018-05-06T07:38:18.146Z,17.02
2018-05-06T07:39:46.552Z,17.06
2018-05-06T07:41:12.711Z,17.10
2018-05-06T07:42:39.724Z,17.13
2018-05-06T07:44:08.288Z,17.14
2018-05-06T07:45:35.681Z,17.20
2018-05-06T07:47:02.041Z,17.26
2018-05-06T07:48:29.569Z,17.30
2018-05-06T07:49:56.903Z,17.33
2018-05-06T07:51:25.419Z,17.36
2018-05-06T07:52:51.777Z,17.39
2018-05-06T07:54:19.122Z,17.40
2018-05-06T07:55:46.686Z,17.35
2018-05-06T07:57:14.207Z,17.33
2018-05-06T07:58:41.524Z,17.35
2018-05-06T08:00:08.834Z,17.42
2018-05-06T08:01:37.110Z,17.47
2018-05-06T08:03:04.389Z,17.54
2018-05-06T08:04:30.873Z,17.65
2018-05-06T08:05:58.115Z,17.70
2018-05-06T08:07:26.548Z,17.73
2018-05-06T08:08:52.928Z,17.75
2018-05-06T08:10:20.370Z,17.79
2018-05-06T08:11:47.770Z,17.75
2018-05-06T08:13:16.077Z,17.70
2018-05-06T08:14:42.594Z,17.75
2018-05-06T08:16:09.759Z,17.83
2018-05-06T08:17:37.017Z,17.89
2018-05-06T08:19:05.548Z,17.91
2018-05-06T08:20:31.845Z,17.85
2018-05-06T08:21:59.035Z,17.86
2018-05-06T08:23:26.424Z,17.92
2018-05-06T08:24:55.015Z,17.97
2018-05-06T08:26:21.384Z,18.04
2018-05-06T08:27:48.922Z,18.05
2018-05-06T08:29:16.255Z,18.08
2018-05-06T08:30:43.729Z,18.11
2018-05-06T08:32:11.302Z,18.15
2018-05-06T08:33:39.613Z,18.14
2018-05-06T08:35:07.078Z,18.19
2018-05-06T08:36:33.216Z,18.26
2018-05-06T08:38:00.765Z,18.25
2018-05-06T08:39:29.167Z,18.27
2018-05-06T08:40:55.395Z,18.34
2018-05-06T08:42:23.921Z,18.37
2018-05-06T08:43:50.843Z,18.35
2018-05-06T08:45:17.431Z,18.29
2018-05-06T08:46:44.909Z,18.18
2018-05-06T08:48:13.535Z,18.22
2018-05-06T08:49:39.879Z,18.23
2018-05-06T08:51:07.382Z,18.26
2018-05-06T08:52:34.792Z,18.33
2018-05-06T08:54:02.278Z,18.37
2018-05-06T08:55:29.803Z,18.38
2018-05-06T08:56:57.145Z,18.37
2018-05-06T08:58:24.555Z,18.37
2018-05-06T08:59:51.870Z,18.41
2018-05-06T09:01:19.118Z,18.49
2018-05-06T09:02:46.542Z,18.48
2018-05-06T09:04:14.097Z,18.47
2018-05-06T09:05:41.503Z,18.50
2018-05-06T09:07:09.000Z,18.46
2018-05-06T09:08:36.455Z,18.44
2018-05-06T09:10:03.319Z,18.41
2018-05-06T09:11:31.770Z,18.41
2018-05-06T09:12:59.158Z,18.47
2018-05-06T09:14:26.709Z,18.53
2018-05-06T09:15:54.134Z,18.59
2018-05-06T09:17:20.449Z,18.62
2018-05-06T09:18:47.929Z,18.58
2018-05-06T09:20:15.120Z,18.62
2018-05-06T09:21:42.499Z,18.66
2018-05-06T09:23:10.132Z,18.77
2018-05-06T09:24:37.286Z,18.87
2018-05-06T09:26:05.504Z,18.90
2018-05-06T09:27:31.903Z,18.93
2018-05-06T09:29:00.450Z,19.02
2018-05-06T09:30:26.902Z,19.06
2018-05-06T09:31:54.345Z,19.05
2018-05-06T09:33:21.796Z,19.14
2018-05-06T09:34:49.218Z,19.23
2018-05-06T09:36:16.677Z,19.28
2018-05-06T09:37:44.237Z,19.39
2018-05-06T09:39:11.504Z,19.47
2018-05-06T09:40:40.035Z,19.48
2018-05-06T09:42:06.467Z,19.41
2018-05-06T09:43:35.091Z,19.39
2018-05-06T09:45:01.475Z,19.36
2018-05-06T09:46:29.947Z,19.43
2018-05-06T09:47:56.291Z,19.43
2018-05-06T09:49:23.825Z,19.51
2018-05-06T09:50:51.035Z,19.53
2018-05-06T09:52:18.593Z,19.54
2018-05-06T09:53:47.127Z,19.54
2018-05-06T09:55:14.423Z,19.55
2018-05-06T09:56:40.936Z,19.46
2018-05-06T09:58:09.381Z,19.46
2018-05-06T09:59:36.867Z,19.48
2018-05-06T10:01:04.296Z,19.41
2018-05-06T10:02:30.687Z,19.45
2018-05-06T10:03:58.125Z,19.53
2018-05-06T10:05:25.572Z,19.56
2018-05-06T10:06:52.859Z,19.57
2018-05-06T10:08:20.295Z,19.63
2018-05-06T10:09:47.627Z,19.69
2018-05-06T10:11:15.088Z,19.70
2018-05-06T10:12:43.702Z,19.71
2018-05-06T10:14:10.078Z,19.69
2018-05-06T10:15:37.715Z,19.64
2018-05-06T10:17:04.891Z,19.59
2018-05-06T10:18:33.363Z,19.60
2018-05-06T10:20:00.679Z,19.65
2018-05-06T10:21:28.214Z,19.78
2018-05-06T10:22:54.372Z,19.69
2018-05-06T10:24:22.748Z,19.66
2018-05-06T10:25:48.959Z,19.67
2018-05-06T10:27:16.090Z,19.79
2018-05-06T10:28:44.640Z,19.80
2018-05-06T10:30:12.172Z,19.78
2018-05-06T10:31:38.660Z,19.80
2018-05-06T10:33:06.210Z,19.92
2018-05-06T10:34:33.540Z,19.90
2018-05-06T10:36:01.058Z,19.93
2018-05-06T10:37:29.544Z,19.90
2018-05-06T10:38:55.873Z,19.94
2018-05-06T10:40:23.477Z,20.01
2018-05-06T10:41:51.882Z,20.02
2018-05-06T10:43:18.361Z,20.06
2018-05-06T10:44:45.877Z,20.22
2018-05-06T10:46:13.425Z,20.21
2018-05-06T10:47:40.871Z,20.19
2018-05-06T10:49:08.220Z,20.07
2018-05-06T10:50:36.676Z,20.05
2018-05-06T10:52:04.313Z,20.01
2018-05-06T10:53:30.677Z,20.04
2018-05-06T10:54:58.031Z,19.98
2018-05-06T10:56:26.537Z,19.99
2018-05-06T10:57:53.075Z,20.04
2018-05-06T10:59:20.091Z,19.98
2018-05-06T11:00:47.429Z,19.97
2018-05-06T11:02:15.855Z,20.02
2018-05-06T11:03:43.445Z,20.09
2018-05-06T11:05:09.744Z,20.11
2018-05-06T11:06:37.384Z,20.11
2018-05-06T11:08:06.013Z,20.21
2018-05-06T11:09:32.466Z,20.32
2018-05-06T11:11:00.900Z,20.39
2018-05-06T11:12:27.408Z,20.52
2018-05-06T11:13:54.795Z,20.61
2018-05-06T11:15:22.134Z,20.67
2018-05-06T11:16:49.463Z,20.71
2018-05-06T11:18:16.973Z,20.77
2018-05-06T11:19:44.297Z,20.78
2018-05-06T11:21:11.529Z,20.91
2018-05-06T11:22:39.107Z,21.08
2018-05-06T11:24:06.721Z,21.21
2018-05-06T11:25:35.402Z,21.40
2018-05-06T11:27:02.736Z,21.63
2018-05-06T11:28:29.165Z,21.77
2018-05-06T11:29:56.224Z,21.76
2018-05-06T11:31:23.607Z,21.71
2018-05-06T11:32:51.899Z,21.79
2018-05-06T11:34:18.241Z,21.93
2018-05-06T11:35:45.726Z,21.99
2018-05-06T11:37:13.348Z,22.06
2018-05-06T11:38:41.951Z,22.19
2018-05-06T11:40:08.357Z,22.25
2018-05-06T11:41:35.784Z,22.22
2018-05-06T11:43:04.171Z,22.07
2018-05-06T11:44:30.779Z,22.02
2018-05-06T11:45:59.129Z,21.95
2018-05-06T11:47:25.434Z,22.05
2018-05-06T11:48:53.783Z,22.21
2018-05-06T11:50:20.269Z,22.35
2018-05-06T11:51:47.729Z,22.48
2018-05-06T11:53:16.471Z,22.73
2018-05-06T11:54:42.882Z,22.92
2018-05-06T11:56:11.512Z,22.85
2018-05-06T11:57:37.966Z,22.87
2018-05-06T11:59:05.501Z,22.82
2018-05-06T12:00:34.136Z,22.99
2018-05-06T12:02:00.614Z,23.00
2018-05-06T12:03:28.140Z,23.13
2018-05-06T12:04:55.761Z,22.97
2018-05-06T12:06:23.217Z,22.75
2018-05-06T12:07:51.537Z,22.69
2018-05-06T12:09:18.207Z,22.81
2018-05-06T12:10:46.856Z,23.16
2018-05-06T12:12:14.411Z,23.08
2018-05-06T12:13:42.015Z,22.98
2018-05-06T12:15:08.590Z,22.99
2018-05-06T12:16:35.925Z,23.09
2018-05-06T12:18:03.636Z,23.15
2018-05-06T12:19:31.073Z,23.24
2018-05-06T12:20:58.319Z,23.40
2018-05-06T12:22:26.048Z,23.41
2018-05-06T12:23:54.451Z,23.30
2018-05-06T12:25:20.777Z,23.14
2018-05-06T12:26:49.165Z,23.06
2018-05-06T12:28:15.869Z,23.07
2018-05-06T12:29:43.428Z,23.13
2018-05-06T12:31:11.036Z,23.00
2018-05-06T12:32:38.095Z,22.99
2018-05-06T12:34:06.641Z,22.80
2018-05-06T12:35:33.103Z,22.91
2018-05-06T12:37:00.676Z,22.66
2018-05-06T12:38:29.231Z,22.74
2018-05-06T12:39:55.520Z,22.66
2018-05-06T12:41:23.065Z,22.60
2018-05-06T12:42:50.487Z,22.60
2018-05-06T12:44:18.055Z,22.61
2018-05-06T12:45:46.687Z,22.63
2018-05-06T12:47:13.165Z,22.80
2018-05-06T12:48:40.760Z,22.84
2018-05-06T12:50:09.399Z,22.87
2018-05-06T12:51:36.407Z,22.80
2018-05-06T12:53:03.846Z,22.76
2018-05-06T12:54:31.174Z,22.82
2018-05-06T12:55:57.505Z,22.86
2018-05-06T12:57:24.878Z,23.07
2018-05-06T12:58:52.479Z,23.15
2018-05-06T13:00:19.664Z,23.24
2018-05-06T13:01:47.166Z,23.27
2018-05-06T13:03:14.544Z,23.20
2018-05-06T13:04:41.978Z,23.20
2018-05-06T13:06:10.029Z,23.16
2018-05-06T13:07:36.637Z,23.08
2018-05-06T13:09:05.071Z,22.99
2018-05-06T13:10:31.125Z,22.83
2018-05-06T13:11:58.816Z,22.80
2018-05-06T13:13:26.152Z,22.74
2018-05-06T13:14:53.518Z,22.72
2018-05-06T13:16:20.949Z,22.76
2018-05-06T13:17:48.602Z,22.80
2018-05-06T13:19:16.214Z,22.84
2018-05-06T13:20:43.787Z,22.78
2018-05-06T13:22:11.337Z,22.54
2018-05-06T13:23:38.798Z,22.35
2018-05-06T13:25:07.422Z,22.23
2018-05-06T13:26:33.845Z,22.06
2018-05-06T13:28:01.359Z,21.97
2018-05-06T13:29:28.821Z,21.89
2018-05-06T13:30:56.114Z,21.89
2018-05-06T13:32:23.707Z,21.91
2018-05-06T13:33:52.120Z,21.89
2018-05-06T13:35:18.596Z,21.79
2018-05-06T13:36:46.198Z,21.76
2018-05-06T13:38:13.782Z,21.64
2018-05-06T13:39:42.275Z,21.51
2018-05-06T13:41:08.907Z,21.52
2018-05-06T13:42:36.516Z,21.56
2018-05-06T13:44:04.042Z,21.55
2018-05-06T13:45:31.369Z,21.58
2018-05-06T13:46:58.791Z,21.56
2018-05-06T13:48:27.303Z,21.54
2018-05-06T13:49:54.954Z,21.55
2018-05-06T13:51:20.991Z,21.56
2018-05-06T13:52:48.649Z,21.55
2018-05-06T13:54:17.006Z,21.56
2018-05-06T13:55:43.602Z,21.48
2018-05-06T13:57:11.225Z,21.49
2018-05-06T13:58:38.544Z,21.52
2018-05-06T14:00:05.952Z,21.56
2018-05-06T14:01:34.482Z,21.54
2018-05-06T14:03:00.860Z,21.54
2018-05-06T14:04:28.342Z,21.51
2018-05-06T14:05:55.899Z,21.48
2018-05-06T14:07:24.397Z,21.48
2018-05-06T14:08:51.903Z,21.46
2018-05-06T14:10:18.174Z,21.39
2018-05-06T14:11:45.852Z,21.35
2018-05-06T14:13:13.294Z,21.31
2018-05-06T14:14:40.798Z,21.18
2018-05-06T14:16:08.387Z,21.13
2018-05-06T14:17:35.458Z,21.13
2018-05-06T14:19:02.879Z,21.12
2018-05-06T14:20:30.404Z,21.15
2018-05-06T14:21:59.012Z,21.19
2018-05-06T14:23:25.542Z,21.19
2018-05-06T14:24:53.828Z,21.16
2018-05-06T14:26:20.251Z,21.19
2018-05-06T14:27:48.696Z,21.19
2018-05-06T14:29:16.257Z,21.17
2018-05-06T14:30:42.335Z,21.18
2018-05-06T14:32:11.022Z,21.17
2018-05-06T14:33:37.084Z,21.20
2018-05-06T14:35:04.561Z,21.21
2018-05-06T14:36:32.888Z,21.22
2018-05-06T14:38:00.481Z,21.24
2018-05-06T14:39:27.037Z,21.25
2018-05-06T14:40:54.533Z,21.20
2018-05-06T14:42:21.829Z,21.17
2018-05-06T14:43:50.208Z,21.19
2018-05-06T14:45:16.658Z,21.21
2018-05-06T14:46:44.232Z,21.22
2018-05-06T14:48:11.479Z,21.24
2018-05-06T14:49:39.027Z,21.26
2018-05-06T14:51:06.624Z,21.24
2018-05-06T14:52:33.885Z,21.23
2018-05-06T14:54:01.501Z,21.17
2018-05-06T14:55:28.776Z,21.14
2018-05-06T14:56:56.168Z,21.12
2018-05-06T14:58:23.683Z,21.11
2018-05-06T14:59:51.163Z,21.11
2018-05-06T15:01:18.706Z,21.11
2018-05-06T15:02:46.240Z,21.07
2018-05-06T15:04:14.578Z,21.09
2018-05-06T15:05:42.043Z,21.10
2018-05-06T15:07:08.378Z,21.12
2018-05-06T15:08:35.828Z,21.13
2018-05-06T15:10:03.290Z,21.10
2018-05-06T15:11:31.642Z,21.07
2018-05-06T15:12:58.250Z,21.07
2018-05-06T15:14:25.825Z,21.05
2018-05-06T15:15:53.111Z,21.08
2018-05-06T15:17:20.464Z,21.11
2018-05-06T15:18:49.015Z,21.11
2018-05-06T15:20:15.492Z,21.11
2018-05-06T15:21:42.941Z,21.11
2018-05-06T15:23:10.364Z,21.12
2018-05-06T15:24:37.702Z,21.13
2018-05-06T15:26:05.342Z,21.14
2018-05-06T15:27:33.888Z,21.12
2018-05-06T15:29:00.240Z,21.10
2018-05-06T15:30:28.843Z,21.10
2018-05-06T15:31:56.157Z,21.07
2018-05-06T15:33:22.553Z,21.05
2018-05-06T15:34:50.229Z,21.06
2018-05-06T15:36:18.641Z,21.07
2018-05-06T15:37:45.188Z,21.08
2018-05-06T15:39:13.748Z,21.04
2018-05-06T15:40:41.390Z,21.00
2018-05-06T15:42:07.920Z,20.98
2018-05-06T15:43:35.513Z,20.97
2018-05-06T15:45:02.962Z,20.98
2018-05-06T15:46:31.367Z,20.98
2018-05-06T15:47:58.805Z,20.98
2018-05-06T15:49:25.022Z,20.98
2018-05-06T15:50:53.486Z,20.98
2018-05-06T15:52:20.041Z,20.98
2018-05-06T15:53:47.159Z,20.97
2018-05-06T15:55:14.698Z,20.96
2018-05-06T15:56:42.228Z,20.96
2018-05-06T15:58:10.877Z,20.98
2018-05-06T15:59:37.586Z,20.97
2018-05-06T16:01:06.072Z,20.92
2018-05-06T16:02:32.560Z,20.91
2018-05-06T16:03:59.961Z,20.89
2018-05-06T16:05:27.407Z,20.88
2018-05-06T16:06:54.939Z,20.88
2018-05-06T16:08:22.330Z,20.86
2018-05-06T16:09:51.151Z,20.88
2018-05-06T16:11:18.665Z,20.89
2018-05-06T16:12:45.971Z,20.89
2018-05-06T16:14:12.589Z,20.88
2018-05-06T16:15:39.978Z,20.89
2018-05-06T16:17:08.581Z,20.89
2018-05-06T16:18:34.951Z,20.90
2018-05-06T16:20:02.514Z,20.91
2018-05-06T16:21:29.881Z,20.92
2018-05-06T16:22:57.202Z,20.93
2018-05-06T16:24:25.812Z,20.93
2018-05-06T16:25:52.263Z,20.92
2018-05-06T16:27:19.563Z,20.90
2018-05-06T16:28:50.196Z,20.89
2018-05-06T16:30:14.417Z,20.89
2018-05-06T16:31:41.922Z,20.89
2018-05-06T16:33:10.457Z,20.88
2018-05-06T16:34:36.930Z,20.88
2018-05-06T16:36:04.550Z,20.87
2018-05-06T16:37:32.714Z,20.87
2018-05-06T16:38:59.041Z,20.86
2018-05-06T16:40:26.408Z,20.85
2018-05-06T16:41:53.992Z,20.84
2018-05-06T16:43:21.486Z,20.81
2018-05-06T16:44:49.711Z,20.80
2018-05-06T16:46:16.163Z,20.79
2018-05-06T16:47:43.843Z,20.78
2018-05-06T16:49:11.338Z,20.79
2018-05-06T16:50:39.007Z,20.81
2018-05-06T16:52:06.338Z,20.80
2018-05-06T16:53:33.822Z,20.82
2018-05-06T16:55:01.388Z,20.83
2018-05-06T16:56:28.812Z,20.82
2018-05-06T16:57:57.210Z,20.79
2018-05-06T16:59:23.754Z,20.78
2018-05-06T17:00:51.949Z,20.73
2018-05-06T17:02:18.472Z,20.73
2018-05-06T17:03:46.097Z,20.73
2018-05-06T17:05:14.642Z,20.74
2018-05-06T17:06:42.032Z,20.72
2018-05-06T17:08:09.659Z,20.71
2018-05-06T17:09:36.170Z,20.70
2018-05-06T17:11:03.497Z,20.67
2018-05-06T17:12:31.072Z,20.63
2018-05-06T17:13:59.434Z,20.57
2018-05-06T17:15:26.921Z,20.55
2018-05-06T17:16:54.404Z,20.52
2018-05-06T17:18:20.696Z,20.48
2018-05-06T17:19:48.247Z,20.43
2018-05-06T17:21:15.680Z,20.38
2018-05-06T17:22:43.344Z,20.31
2018-05-06T17:24:10.692Z,20.28
2018-05-06T17:25:38.157Z,20.26
2018-05-06T17:27:06.700Z,20.20
2018-05-06T17:28:33.134Z,20.16
2018-05-06T17:30:00.466Z,20.11
2018-05-06T17:31:29.069Z,20.04
2018-05-06T17:32:55.421Z,19.97
2018-05-06T17:34:22.729Z,19.92
2018-05-06T17:35:50.064Z,19.87
2018-05-06T17:37:17.617Z,19.83
2018-05-06T17:38:45.042Z,19.77
2018-05-06T17:40:13.637Z,19.72
2018-05-06T17:41:41.025Z,19.67
2018-05-06T17:43:08.571Z,19.63
2018-05-06T17:44:35.061Z,19.56
2018-05-06T17:46:02.375Z,19.52
2018-05-06T17:47:31.089Z,19.47
2018-05-06T17:48:57.285Z,19.44
2018-05-06T17:50:24.849Z,19.38
2018-05-06T17:51:53.457Z,19.34
2018-05-06T17:53:19.980Z,19.29
2018-05-06T17:54:47.583Z,19.25
2018-05-06T17:56:16.017Z,19.22
2018-05-06T17:57:42.526Z,19.18
2018-05-06T17:59:10.885Z,19.14
2018-05-06T18:00:37.346Z,19.09
2018-05-06T18:02:04.805Z,19.02
2018-05-06T18:03:33.334Z,18.97
2018-05-06T18:05:00.897Z,18.91
2018-05-06T18:06:28.266Z,18.85
2018-05-06T18:07:54.460Z,18.77
2018-05-06T18:09:21.909Z,18.69
2018-05-06T18:10:50.436Z,18.62
2018-05-06T18:12:16.797Z,18.55
2018-05-06T18:13:44.137Z,18.50
2018-05-06T18:15:12.557Z,18.43
2018-05-06T18:16:39.189Z,18.37
2018-05-06T18:18:06.714Z,18.31
2018-05-06T18:19:34.086Z,18.24
2018-05-06T18:21:02.660Z,18.19
2018-05-06T18:22:29.176Z,18.15
2018-05-06T18:23:56.536Z,18.09
2018-05-06T18:25:23.881Z,18.05
2018-05-06T18:26:51.122Z,18.00
2018-05-06T18:28:18.592Z,17.95
2018-05-06T18:29:46.190Z,17.89
2018-05-06T18:31:13.747Z,17.83
2018-05-06T18:32:41.406Z,17.77
2018-05-06T18:34:09.781Z,17.71
2018-05-06T18:35:37.273Z,17.65
2018-05-06T18:37:03.696Z,17.58
2018-05-06T18:38:30.965Z,17.51
2018-05-06T18:39:58.434Z,17.44
2018-05-06T18:41:25.870Z,17.38
2018-05-06T18:42:54.215Z,17.34
2018-05-06T18:44:20.302Z,17.29
2018-05-06T18:45:47.652Z,17.22
2018-05-06T18:47:15.250Z,17.17
2018-05-06T18:48:42.733Z,17.10
2018-05-06T18:50:09.973Z,17.05
2018-05-06T18:51:38.288Z,17.00
2018-05-06T18:53:05.874Z,16.93
2018-05-06T18:54:33.101Z,16.89
2018-05-06T18:55:59.418Z,16.85
2018-05-06T18:57:27.973Z,16.79
2018-05-06T18:58:54.050Z,16.75